createdAt,value
2022-10-03T00:00:11.735Z,9.06
2022-10-03T00:02:50.861Z,9.11
2022-10-03T00:05:57.277Z,9.09
2022-10-03T00:08:49.792Z,9.03
2022-10-03T00:11:25.320Z,9.04
2022-10-03T00:14:19.873Z,9.00
2022-10-03T00:17:04.559Z,8.97
2022-10-03T00:19:52.574Z,8.91
2022-10-03T00:22:43.750Z,8.90
2022-10-03T00:25:45.151Z,8.87
2022-10-03T00:28:35.093Z,8.85
2022-10-03T00:31:13.980Z,8.86
2022-10-03T00:33:55.901Z,8.83
2022-10-03T00:36:47.990Z,8.76
2022-10-03T00:39:50.756Z,8.71
2022-10-03T00:42:37.017Z,8.79
2022-10-03T00:45:42.168Z,8.75
2022-10-03T00:48:26.840Z,8.70
2022-10-03T00:51:28.001Z,8.71
2022-10-03T00:54:18.395Z,8.70
2022-10-03T00:56:56.393Z,8.73
2022-10-03T01:00:01.168Z,8.73
2022-10-03T01:02:33.195Z,8.67
2022-10-03T01:05:27.626Z,8.62
2022-10-03T01:08:13.077Z,8.62
2022-10-03T01:11:05.265Z,8.59
2022-10-03T01:13:58.549Z,8.63
2022-10-03T01:16:48.410Z,8.61
2022-10-03T01:19:23.699Z,8.58
2022-10-03T01:22:29.061Z,8.53
2022-10-03T01:25:13.938Z,8.51
2022-10-03T01:28:05.524Z,8.48
2022-10-03T01:30:48.139Z,8.46
2022-10-03T01:33:27.746Z,8.37
2022-10-03T01:36:08.429Z,8.37
2022-10-03T01:39:00.318Z,8.27
2022-10-03T01:42:03.057Z,8.32
2022-10-03T01:45:01.370Z,8.26
2022-10-03T01:47:34.997Z,8.21
2022-10-03T01:50:48.534Z,8.20
2022-10-03T01:53:33.175Z,8.18
2022-10-03T01:56:12.529Z,8.20
2022-10-03T01:58:54.932Z,8.14
2022-10-03T02:01:31.426Z,8.15
2022-10-03T02:04:32.571Z,8.09
2022-10-03T02:07:17.927Z,8.13
2022-10-03T02:10:00.443Z,8.23
2022-10-03T02:12:35.110Z,8.21
2022-10-03T02:15:24.977Z,8.28
2022-10-03T02:18:16.002Z,8.29
2022-10-03T02:20:57.818Z,8.28
2022-10-03T02:23:39.599Z,8.26
2022-10-03T02:26:45.010Z,8.24
2022-10-03T02:29:36.157Z,8.18
2022-10-03T02:32:21.774Z,8.12
2022-10-03T02:35:26.310Z,8.17
2022-10-03T02:37:58.985Z,8.16
2022-10-03T02:40:50.933Z,8.05
2022-10-03T02:43:55.537Z,8.01
2022-10-03T02:46:38.357Z,8.02
2022-10-03T02:49:37.226Z,7.99
2022-10-03T02:52:26.653Z,8.04
2022-10-03T02:55:05.132Z,8.03
2022-10-03T02:58:05.524Z,8.06
2022-10-03T03:00:48.347Z,7.98
2022-10-03T03:03:43.264Z,7.99
2022-10-03T03:06:41.149Z,7.95
2022-10-03T03:09:33.244Z,7.84
2022-10-03T03:12:27.837Z,7.87
2022-10-03T03:15:45.690Z,7.96
2022-10-03T03:18:20.677Z,7.85
2022-10-03T03:21:15.181Z,7.85
2022-10-03T03:24:00.869Z,7.86
2022-10-03T03:26:37.190Z,7.88
2022-10-03T03:29:22.828Z,7.84
2022-10-03T03:32:13.583Z,7.85
2022-10-03T03:35:04.656Z,7.80
2022-10-03T03:37:39.993Z,7.73
2022-10-03T03:40:38.834Z,7.76
2022-10-03T03:43:08.737Z,7.69
2022-10-03T03:45:41.145Z,7.65
2022-10-03T03:48:26.239Z,7.59
2022-10-03T03:51:23.538Z,7.64
2022-10-03T03:54:08.059Z,7.65
2022-10-03T03:57:05.624Z,7.59
2022-10-03T04:00:02.548Z,7.59
2022-10-03T04:02:32.357Z,7.64
2022-10-03T04:05:15.246Z,7.55
2022-10-03T04:07:50.321Z,7.49
2022-10-03T04:10:20.090Z,7.48
2022-10-03T04:13:05.925Z,7.48
2022-10-03T04:16:02.920Z,7.46
2022-10-03T04:18:59.102Z,7.36
2022-10-03T04:21:45.579Z,7.31
2022-10-03T04:24:34.506Z,7.30
2022-10-03T04:27:13.814Z,7.34
2022-10-03T04:29:40.759Z,7.26
2022-10-03T04:32:23.134Z,7.20
2022-10-03T04:35:10.140Z,7.20
2022-10-03T04:37:49.721Z,7.19
2022-10-03T04:40:45.026Z,7.13
2022-10-03T04:43:24.314Z,7.08
2022-10-03T04:45:51.446Z,7.13
2022-10-03T04:48:40.146Z,7.17
2022-10-03T04:51:41.884Z,7.13
2022-10-03T04:54:25.967Z,7.17
2022-10-03T04:57:19.544Z,7.18
2022-10-03T04:59:59.587Z,7.13
2022-10-03T05:02:41.540Z,7.11
2022-10-03T05:05:21.232Z,7.13
2022-10-03T05:07:53.434Z,7.22
2022-10-03T05:10:26.581Z,7.24
2022-10-03T05:13:11.979Z,7.23
2022-10-03T05:16:02.438Z,7.18
2022-10-03T05:18:41.907Z,7.10
2022-10-03T05:21:32.359Z,7.09
2022-10-03T05:24:26.705Z,7.11
2022-10-03T05:27:04.059Z,7.14
2022-10-03T05:30:07.072Z,7.14
2022-10-03T05:32:39.364Z,7.09
2022-10-03T05:35:27.273Z,7.09
2022-10-03T05:38:32.248Z,7.07
2022-10-03T05:40:59.205Z,7.04
2022-10-03T05:43:47.824Z,7.04
2022-10-03T05:46:36.141Z,7.05
2022-10-03T05:49:16.652Z,7.02
2022-10-03T05:52:00.150Z,7.01
2022-10-03T05:54:40.510Z,7.07
2022-10-03T05:57:24.104Z,7.12
2022-10-03T06:00:19.940Z,7.05
2022-10-03T06:03:12.153Z,7.02
2022-10-03T06:06:08.921Z,7.06
2022-10-03T06:08:51.004Z,7.07
2022-10-03T06:11:42.092Z,7.09
2022-10-03T06:14:30.404Z,7.10
2022-10-03T06:17:29.000Z,7.09
2022-10-03T06:19:55.921Z,7.17
2022-10-03T06:22:45.675Z,7.21
2022-10-03T06:25:45.616Z,7.28
2022-10-03T06:28:24.477Z,7.34
2022-10-03T06:31:03.343Z,7.39
2022-10-03T06:33:49.023Z,7.43
2022-10-03T06:36:18.588Z,7.49
2022-10-03T06:39:23.205Z,7.57
2022-10-03T06:42:07.145Z,7.63
2022-10-03T06:44:55.130Z,7.65
2022-10-03T06:47:40.566Z,7.72
2022-10-03T06:50:36.234Z,7.82
2022-10-03T06:53:24.699Z,7.91
2022-10-03T06:56:40.564Z,8.07
2022-10-03T06:59:36.074Z,8.17
2022-10-03T07:02:21.460Z,8.22
2022-10-03T07:05:01.630Z,8.32
2022-10-03T07:08:06.079Z,8.42
2022-10-03T07:10:53.645Z,8.55
2022-10-03T07:13:32.647Z,8.68
2022-10-03T07:16:26.381Z,8.86
2022-10-03T07:19:26.180Z,9.02
2022-10-03T07:22:14.424Z,9.26
2022-10-03T07:24:59.930Z,9.47
2022-10-03T07:27:50.776Z,9.59
2022-10-03T07:30:54.061Z,9.84
2022-10-03T07:33:52.565Z,10.05
2022-10-03T07:36:48.181Z,10.11
2022-10-03T07:39:39.807Z,10.28
2022-10-03T07:42:47.586Z,10.38
2022-10-03T07:45:36.111Z,10.58
2022-10-03T07:48:24.385Z,10.80
2022-10-03T07:51:09.495Z,10.91
2022-10-03T07:54:13.892Z,11.22
2022-10-03T07:56:53.034Z,11.51
2022-10-03T07:59:45.175Z,11.74
2022-10-03T08:02:50.557Z,11.91
2022-10-03T08:05:25.084Z,12.02
2022-10-03T08:08:09.333Z,12.24
2022-10-03T08:11:14.745Z,12.31
2022-10-03T08:14:14.062Z,12.34
2022-10-03T08:17:02.757Z,12.37
2022-10-03T08:19:48.129Z,12.44
2022-10-03T08:22:29.986Z,12.43
2022-10-03T08:25:27.100Z,12.48
2022-10-03T08:28:25.391Z,12.69
2022-10-03T08:31:04.851Z,12.69
2022-10-03T08:33:50.454Z,12.73
2022-10-03T08:36:36.290Z,12.75
2022-10-03T08:39:16.402Z,12.83
2022-10-03T08:41:46.325Z,12.87
2022-10-03T08:44:35.157Z,12.91
2022-10-03T08:47:11.286Z,12.98
2022-10-03T08:50:06.036Z,13.12
2022-10-03T08:52:54.763Z,13.24
2022-10-03T08:55:33.751Z,13.37
2022-10-03T08:58:19.256Z,13.50
2022-10-03T09:01:23.543Z,13.60
2022-10-03T09:04:39.260Z,13.75
2022-10-03T09:07:31.247Z,13.84
2022-10-03T09:10:42.705Z,13.99
2022-10-03T09:13:41.743Z,14.15
2022-10-03T09:16:30.267Z,14.25
2022-10-03T09:19:12.231Z,14.46
2022-10-03T09:22:03.897Z,14.55
2022-10-03T09:25:02.097Z,14.59
2022-10-03T09:27:47.537Z,14.59
2022-10-03T09:30:42.252Z,14.63
2022-10-03T09:33:31.614Z,14.63
2022-10-03T09:36:16.494Z,14.63
2022-10-03T09:39:04.238Z,14.64
2022-10-03T09:42:22.277Z,14.67
2022-10-03T09:45:13.452Z,14.79
2022-10-03T09:47:40.457Z,14.84
2022-10-03T09:50:22.295Z,14.79
2022-10-03T09:53:19.969Z,14.82
2022-10-03T09:56:23.341Z,14.82
2022-10-03T09:59:27.852Z,14.93
2022-10-03T10:01:54.799Z,14.94
2022-10-03T10:04:54.711Z,14.96
2022-10-03T10:07:48.478Z,15.13
2022-10-03T10:10:37.194Z,15.21
2022-10-03T10:14:05.871Z,15.30
2022-10-03T10:16:31.935Z,15.28
2022-10-03T10:19:53.425Z,15.43
2022-10-03T10:22:41.944Z,15.56
2022-10-03T10:25:24.730Z,15.62
2022-10-03T10:28:07.371Z,15.56
2022-10-03T10:31:08.402Z,15.58
2022-10-03T10:33:53.854Z,15.60
2022-10-03T10:36:45.331Z,15.50
2022-10-03T10:39:17.874Z,15.60
2022-10-03T10:42:32.685Z,15.65
2022-10-03T10:45:33.364Z,15.79
2022-10-03T10:48:51.129Z,16.06
2022-10-03T10:51:40.783Z,16.10
2022-10-03T10:54:38.010Z,16.09
2022-10-03T10:57:43.799Z,16.20
2022-10-03T11:00:54.068Z,16.29
2022-10-03T11:03:39.441Z,16.07
2022-10-03T11:06:34.215Z,16.16
2022-10-03T11:09:23.167Z,16.13
2022-10-03T11:11:55.960Z,16.03
2022-10-03T11:14:59.204Z,15.83
2022-10-03T11:18:03.977Z,15.90
2022-10-03T11:20:55.395Z,16.03
2022-10-03T11:23:57.749Z,15.93
2022-10-03T11:26:33.957Z,16.14
2022-10-03T11:29:23.059Z,16.26
2022-10-03T11:32:09.553Z,16.26
2022-10-03T11:34:56.065Z,16.40
2022-10-03T11:37:32.649Z,16.55
2022-10-03T11:40:33.640Z,16.48
2022-10-03T11:43:22.519Z,16.70
2022-10-03T11:46:07.342Z,16.83
2022-10-03T11:49:13.505Z,16.77
2022-10-03T11:51:53.405Z,16.93
2022-10-03T11:54:32.263Z,16.96
2022-10-03T11:57:31.262Z,17.11
2022-10-03T12:00:21.098Z,17.00
2022-10-03T12:03:11.101Z,17.13
2022-10-03T12:06:13.883Z,16.78
2022-10-03T12:08:55.597Z,16.53
2022-10-03T12:11:35.155Z,16.57
2022-10-03T12:14:11.626Z,16.53
2022-10-03T12:16:57.325Z,16.49
2022-10-03T12:19:36.525Z,16.59
2022-10-03T12:22:19.831Z,16.52
2022-10-03T12:24:50.064Z,16.49
2022-10-03T12:27:47.565Z,16.48
2022-10-03T12:30:18.080Z,16.57
2022-10-03T12:33:04.181Z,16.69
2022-10-03T12:35:57.732Z,16.68
2022-10-03T12:38:35.331Z,16.75
2022-10-03T12:41:33.675Z,16.76
2022-10-03T12:44:27.513Z,16.74
2022-10-03T12:47:05.557Z,16.70
2022-10-03T12:49:51.309Z,16.82
2022-10-03T12:52:23.813Z,16.90
2022-10-03T12:54:56.522Z,16.92
2022-10-03T12:57:29.439Z,16.77
2022-10-03T13:00:02.294Z,16.76
2022-10-03T13:02:49.801Z,16.57
2022-10-03T13:05:42.193Z,16.60
2022-10-03T13:08:30.530Z,16.69
2022-10-03T13:11:25.842Z,16.71
2022-10-03T13:14:21.946Z,16.84
2022-10-03T13:17:26.228Z,16.78
2022-10-03T13:20:03.434Z,16.78
2022-10-03T13:22:53.376Z,16.68
2022-10-03T13:25:45.269Z,16.59
2022-10-03T13:29:00.249Z,16.53
2022-10-03T13:31:30.978Z,16.52
2022-10-03T13:34:13.609Z,16.50
2022-10-03T13:36:51.062Z,16.47
2022-10-03T13:39:40.391Z,16.64
2022-10-03T13:42:19.414Z,16.85
2022-10-03T13:44:55.474Z,16.94
2022-10-03T13:47:48.192Z,17.19
2022-10-03T13:50:58.731Z,17.26
2022-10-03T13:53:47.723Z,17.28
2022-10-03T13:56:25.265Z,17.26
2022-10-03T13:59:05.345Z,17.22
2022-10-03T14:01:46.609Z,16.96
2022-10-03T14:04:42.324Z,16.90
2022-10-03T14:07:42.195Z,16.78
2022-10-03T14:10:41.975Z,16.71
2022-10-03T14:13:20.469Z,16.77
2022-10-03T14:15:50.333Z,16.76
2022-10-03T14:18:49.250Z,16.81
2022-10-03T14:21:35.677Z,16.82
2022-10-03T14:24:24.514Z,16.72
2022-10-03T14:27:03.920Z,16.80
2022-10-03T14:30:07.207Z,16.57
2022-10-03T14:32:48.555Z,16.38
2022-10-03T14:35:53.096Z,16.26
2022-10-03T14:38:58.000Z,16.13
2022-10-03T14:41:39.173Z,16.04
2022-10-03T14:44:29.006Z,16.04
2022-10-03T14:47:02.176Z,15.88
2022-10-03T14:49:53.706Z,15.95
2022-10-03T14:52:26.907Z,15.83
2022-10-03T14:54:58.268Z,15.78
2022-10-03T14:58:08.893Z,15.88
2022-10-03T15:00:47.715Z,15.87
2022-10-03T15:03:17.483Z,15.96
2022-10-03T15:06:02.782Z,16.09
2022-10-03T15:08:43.192Z,16.17
2022-10-03T15:11:13.907Z,16.05
2022-10-03T15:13:46.947Z,16.13
2022-10-03T15:16:18.434Z,16.13
2022-10-03T15:18:56.365Z,16.10
2022-10-03T15:21:26.136Z,16.06
2022-10-03T15:24:06.552Z,16.10
2022-10-03T15:26:36.372Z,16.00
2022-10-03T15:29:12.844Z,16.00
2022-10-03T15:31:45.721Z,15.94
2022-10-03T15:34:38.630Z,15.90
2022-10-03T15:37:17.522Z,15.82
2022-10-03T15:39:48.019Z,15.66
2022-10-03T15:42:23.126Z,15.64
2022-10-03T15:44:56.551Z,15.58
2022-10-03T15:47:33.938Z,15.60
2022-10-03T15:50:23.188Z,15.57
2022-10-03T15:52:53.829Z,15.67
2022-10-03T15:55:26.862Z,15.66
2022-10-03T15:58:00.518Z,15.66
2022-10-03T16:00:32.588Z,15.62
2022-10-03T16:03:16.781Z,15.60
2022-10-03T16:05:56.904Z,15.59
2022-10-03T16:08:29.258Z,15.51
2022-10-03T16:11:07.995Z,15.56
2022-10-03T16:13:38.911Z,15.59
2022-10-03T16:16:47.633Z,15.67
2022-10-03T16:19:29.302Z,15.74
2022-10-03T16:22:17.878Z,15.81
2022-10-03T16:25:11.117Z,16.09
2022-10-03T16:28:05.187Z,15.93
2022-10-03T16:30:38.791Z,15.85
2022-10-03T16:33:25.516Z,15.73
2022-10-03T16:36:02.342Z,15.61
2022-10-03T16:38:35.701Z,15.37
2022-10-03T16:41:17.336Z,15.24
2022-10-03T16:44:00.111Z,15.12
2022-10-03T16:46:32.459Z,14.92
2022-10-03T16:49:22.360Z,14.85
2022-10-03T16:52:03.047Z,14.69
2022-10-03T16:54:33.361Z,14.64
2022-10-03T16:57:05.550Z,14.63
2022-10-03T16:59:34.409Z,14.52
2022-10-03T17:02:13.916Z,14.41
2022-10-03T17:04:47.643Z,14.37
2022-10-03T17:07:30.752Z,14.32
2022-10-03T17:10:00.785Z,14.20
2022-10-03T17:12:39.613Z,14.07
2022-10-03T17:15:22.484Z,14.05
2022-10-03T17:18:10.268Z,13.98
2022-10-03T17:20:48.146Z,13.93
2022-10-03T17:23:17.982Z,13.90
2022-10-03T17:26:21.239Z,13.83
2022-10-03T17:28:51.019Z,13.81
2022-10-03T17:31:28.701Z,13.76
2022-10-03T17:34:11.617Z,13.69
2022-10-03T17:37:04.455Z,13.59
2022-10-03T17:40:01.239Z,13.58
2022-10-03T17:42:31.947Z,13.56
2022-10-03T17:45:38.805Z,13.54
2022-10-03T17:48:18.734Z,13.49
2022-10-03T17:51:07.207Z,13.44
2022-10-03T17:53:37.206Z,13.34
2022-10-03T17:56:13.114Z,13.38
2022-10-03T17:58:45.441Z,13.32
2022-10-03T18:01:17.206Z,13.22
2022-10-03T18:03:56.560Z,13.06
2022-10-03T18:06:29.734Z,13.02
2022-10-03T18:08:58.227Z,12.91
2022-10-03T18:11:29.087Z,12.87
2022-10-03T18:14:25.677Z,12.79
2022-10-03T18:17:01.499Z,12.75
2022-10-03T18:19:40.464Z,12.72
2022-10-03T18:22:22.478Z,12.65
2022-10-03T18:25:37.344Z,12.62
2022-10-03T18:28:34.726Z,12.58
2022-10-03T18:31:19.263Z,12.59
2022-10-03T18:33:54.892Z,12.55
2022-10-03T18:36:31.628Z,12.45
2022-10-03T18:39:10.504Z,12.44
2022-10-03T18:41:45.136Z,12.43
2022-10-03T18:44:17.783Z,12.38
2022-10-03T18:46:55.143Z,12.35
2022-10-03T18:49:34.319Z,12.29
2022-10-03T18:52:10.509Z,12.29
2022-10-03T18:55:03.670Z,12.22
2022-10-03T18:57:51.079Z,12.23
2022-10-03T19:00:21.375Z,12.25
2022-10-03T19:02:58.829Z,12.23
2022-10-03T19:05:32.813Z,12.19
2022-10-03T19:08:13.185Z,12.18
2022-10-03T19:10:48.190Z,12.17
2022-10-03T19:13:25.061Z,12.21
2022-10-03T19:16:16.615Z,12.20
2022-10-03T19:19:09.228Z,12.26
2022-10-03T19:21:40.390Z,12.26
2022-10-03T19:24:14.819Z,12.26
2022-10-03T19:26:48.642Z,12.28
2022-10-03T19:29:21.173Z,12.28
2022-10-03T19:31:50.737Z,12.28
2022-10-03T19:34:32.167Z,12.30
2022-10-03T19:37:00.425Z,12.28
2022-10-03T19:39:30.956Z,12.30
2022-10-03T19:42:27.947Z,12.34
2022-10-03T19:44:57.260Z,12.36
2022-10-03T19:47:41.074Z,12.39
2022-10-03T19:50:20.472Z,12.36
2022-10-03T19:52:49.283Z,12.35
2022-10-03T19:55:38.908Z,12.38
2022-10-03T19:58:08.567Z,12.38
2022-10-03T20:00:40.275Z,12.40
2022-10-03T20:03:36.956Z,12.45
2022-10-03T20:06:18.574Z,12.41
2022-10-03T20:08:52.433Z,12.44
2022-10-03T20:11:22.481Z,12.44
2022-10-03T20:13:50.064Z,12.43
2022-10-03T20:16:20.501Z,12.40
2022-10-03T20:18:52.122Z,12.34
2022-10-03T20:21:29.382Z,12.38
2022-10-03T20:23:58.118Z,12.38
2022-10-03T20:26:46.642Z,12.34
2022-10-03T20:29:27.569Z,12.34
2022-10-03T20:32:03.147Z,12.33
2022-10-03T20:34:32.959Z,12.30
2022-10-03T20:37:39.567Z,12.28
2022-10-03T20:40:38.075Z,12.25
2022-10-03T20:43:41.294Z,12.24
2022-10-03T20:46:29.060Z,12.14
2022-10-03T20:49:16.136Z,12.14
2022-10-03T20:52:05.142Z,12.07
2022-10-03T20:54:55.180Z,12.03
2022-10-03T20:57:24.870Z,12.02
2022-10-03T20:59:55.991Z,12.07
2022-10-03T21:02:38.105Z,12.01
2022-10-03T21:05:17.256Z,11.90
2022-10-03T21:07:52.597Z,11.87
2022-10-03T21:10:39.914Z,11.85
2022-10-03T21:13:13.278Z,11.83
2022-10-03T21:15:46.910Z,11.85
2022-10-03T21:18:27.233Z,11.83
2022-10-03T21:21:01.051Z,11.80
2022-10-03T21:23:28.324Z,11.82
2022-10-03T21:25:58.852Z,11.75
2022-10-03T21:28:30.395Z,11.76
2022-10-03T21:31:18.411Z,11.78
2022-10-03T21:33:57.830Z,11.70
2022-10-03T21:36:46.897Z,11.67
2022-10-03T21:39:32.615Z,11.63
2022-10-03T21:42:28.144Z,11.67
2022-10-03T21:45:03.080Z,11.68
2022-10-03T21:47:50.032Z,11.68
2022-10-03T21:50:27.833Z,11.74
2022-10-03T21:53:02.835Z,11.72
2022-10-03T21:55:51.615Z,11.75
2022-10-03T21:58:26.746Z,11.75
2022-10-03T22:01:02.801Z,11.76
2022-10-03T22:03:35.692Z,11.81
2022-10-03T22:06:13.644Z,11.86
2022-10-03T22:08:44.392Z,11.92
2022-10-03T22:11:14.081Z,11.91
2022-10-03T22:13:45.384Z,11.89
2022-10-03T22:16:30.996Z,11.89
2022-10-03T22:19:59.647Z,11.91
2022-10-03T22:22:45.211Z,11.93
2022-10-03T22:25:25.836Z,11.93
2022-10-03T22:28:23.876Z,11.95
2022-10-03T22:31:03.395Z,11.95
2022-10-03T22:33:53.030Z,11.95
2022-10-03T22:36:20.278Z,11.96
2022-10-03T22:38:49.664Z,11.93
2022-10-03T22:41:24.061Z,11.92
2022-10-03T22:43:53.912Z,11.96
2022-10-03T22:46:29.213Z,11.95
2022-10-03T22:49:08.205Z,11.93
2022-10-03T22:51:38.197Z,11.96
2022-10-03T22:54:14.338Z,11.93
2022-10-03T22:56:46.971Z,11.96
2022-10-03T22:59:22.400Z,11.96
2022-10-03T23:01:52.416Z,11.93
2022-10-03T23:04:31.727Z,11.95
2022-10-03T23:07:19.631Z,11.93
2022-10-03T23:10:24.968Z,11.91
2022-10-03T23:13:08.990Z,11.88
2022-10-03T23:15:39.179Z,11.94
2022-10-03T23:18:31.311Z,11.95
2022-10-03T23:20:58.240Z,11.93
2022-10-03T23:23:59.739Z,11.93
2022-10-03T23:26:42.553Z,11.95
2022-10-03T23:29:15.517Z,11.94
2022-10-03T23:32:03.293Z,11.97
2022-10-03T23:34:36.374Z,11.97
2022-10-03T23:37:15.817Z,11.94
2022-10-03T23:39:54.021Z,11.93
2022-10-03T23:42:25.048Z,11.91
2022-10-03T23:44:58.087Z,11.91
2022-10-03T23:47:32.616Z,11.89
2022-10-03T23:50:02.393Z,11.89
2022-10-03T23:52:44.098Z,11.88
2022-10-03T23:55:22.502Z,11.90
2022-10-03T23:57:49.627Z,11.92
